INFORMACIÓN METAR y TAF
METAR FOR LECO
ADDS - METARS form results

(1154 UTC 05 December 2022)
Data provider http://aviationweather.gov/metar/data/
 
METAR text: LECO 051130Z VRB01KT CAVOK 12/07 Q1009 NOSIG
Conditions at: LECO (LA CORUNA/ALVEDR, ES) observed 1130 UTC 05 December 2022
Temperature: 12.0°C (54°F)
Dewpoint: 7.0°C (45°F) [RH = 71%]
Pressure (altimeter): 29.79 inches Hg (1009.0 mb)
Winds: variable direction winds at 1 MPH (1 knots; 0.5 m/s)
Visibility: 6 or more miles (10+ km)
Ceiling: ceiling and visibility are OK
Clouds: unknown
Weather: no significant weather observed at this time

METAR text: LECO 051100Z 15004KT CAVOK 11/06 Q1010 NOSIG
Conditions at: LECO (LA CORUNA/ALVEDR, ES) observed 1100 UTC 05 December 2022
Temperature: 11.0°C (52°F)
Dewpoint: 6.0°C (43°F) [RH = 71%]
Pressure (altimeter): 29.82 inches Hg (1010.0 mb)
Winds: from the SSE (150 degrees) at 5 MPH (4 knots; 2.1 m/s)
Visibility: 6 or more miles (10+ km)
Ceiling: ceiling and visibility are OK
Clouds: unknown
Weather: no significant weather observed at this time

Forecast for: LECO (LA CORUNA/ALVEDR, ES)
Text: TAF LECO 050800Z 0509/0609 17005KT CAVOK TX15/0515Z TN06/0607Z
Forecast period: 0900 UTC 05 December 2022 to 0900 UTC 06 December 2022
Forecast type: FROM: standard forecast or significant change
Winds: from the S (170 degrees) at 6 MPH (5 knots; 2.6 m/s)
Visibility: 6 or more miles (10+ km)
Ceiling: unknown
Clouds: missing
Weather: no significant weather forecast for this period

 MAPA DE AEROPUERTO

 INFORMACIÓN DE PISTA
Pista 03 Longitud 6358 ft Ancho 148 ft
Elevación 327 ft Umbral desplazado 0 ft Rumbo de pista 31
Pista 21 Longitud 6358 ft Ancho 148 ft
Elevación 286 ft Umbral desplazado 0 ft Rumbo de pista 211

 FRECUANCIAS DEL AEROPUERTO
Tipo APP Nombre SANTIAGO A Frecuencia 120.2 MHZ
Tipo GND Nombre GND Frecuencia 121.7 MHZ
Tipo TWR Nombre A Coruña T Frecuencia 118.3 MHZ

 RADIO AYUDAS DEL AEROPUERTO
Tipo NDB Nombre La Coruna Frecuencia 401 KHZ
Tipo VOR-DME Nombre La Coruna Frecuencia 115100 KHZ



Powered by Virtual Airlines Manager [v2.6.2]